sensor_id;sensor_type;location;lat;lon;timestamp;P1;durP1;ratioP1;P2;durP2;ratioP2
81320;SDS011;70785;52.570;5.638;2024-01-30T00:02:12;17.58;;;10.52;;
81320;SDS011;70785;52.570;5.638;2024-01-30T00:04:38;16.80;;;10.10;;
81320;SDS011;70785;52.570;5.638;2024-01-30T00:07:04;17.45;;;10.48;;
81320;SDS011;70785;52.570;5.638;2024-01-30T00:09:30;18.30;;;11.13;;
81320;SDS011;70785;52.570;5.638;2024-01-30T00:11:56;17.38;;;10.57;;
81320;SDS011;70785;52.570;5.638;2024-01-30T00:14:22;17.60;;;10.52;;
81320;SDS011;70785;52.570;5.638;2024-01-30T00:16:49;17.23;;;10.45;;
81320;SDS011;70785;52.570;5.638;2024-01-30T00:19:16;20.00;;;10.45;;
81320;SDS011;70785;52.570;5.638;2024-01-30T00:21:42;16.92;;;11.20;;
81320;SDS011;70785;52.570;5.638;2024-01-30T00:24:08;16.48;;;10.57;;
81320;SDS011;70785;52.570;5.638;2024-01-30T00:26:34;17.80;;;9.90;;
81320;SDS011;70785;52.570;5.638;2024-01-30T00:29:01;16.92;;;10.27;;
81320;SDS011;70785;52.570;5.638;2024-01-30T00:31:27;16.67;;;10.25;;
81320;SDS011;70785;52.570;5.638;2024-01-30T00:33:53;17.38;;;10.27;;
81320;SDS011;70785;52.570;5.638;2024-01-30T00:36:19;17.52;;;11.55;;
81320;SDS011;70785;52.570;5.638;2024-01-30T00:38:45;17.88;;;10.30;;
81320;SDS011;70785;52.570;5.638;2024-01-30T00:41:12;15.50;;;9.75;;
81320;SDS011;70785;52.570;5.638;2024-01-30T00:43:38;17.45;;;10.18;;
81320;SDS011;70785;52.570;5.638;2024-01-30T00:46:04;17.13;;;11.00;;
81320;SDS011;70785;52.570;5.638;2024-01-30T00:48:30;17.30;;;10.55;;
81320;SDS011;70785;52.570;5.638;2024-01-30T00:50:56;18.38;;;9.43;;
81320;SDS011;70785;52.570;5.638;2024-01-30T00:53:22;17.30;;;9.63;;
81320;SDS011;70785;52.570;5.638;2024-01-30T00:55:48;17.52;;;11.27;;
81320;SDS011;70785;52.570;5.638;2024-01-30T00:58:14;15.88;;;10.40;;
81320;SDS011;70785;52.570;5.638;2024-01-30T01:00:41;18.73;;;10.52;;
81320;SDS011;70785;52.570;5.638;2024-01-30T01:03:07;16.30;;;8.80;;
81320;SDS011;70785;52.570;5.638;2024-01-30T01:05:33;18.67;;;11.40;;
81320;SDS011;70785;52.570;5.638;2024-01-30T01:07:59;16.60;;;9.68;;
81320;SDS011;70785;52.570;5.638;2024-01-30T01:10:25;15.38;;;9.48;;
81320;SDS011;70785;52.570;5.638;2024-01-30T01:12:51;15.30;;;9.90;;
81320;SDS011;70785;52.570;5.638;2024-01-30T01:15:17;16.35;;;10.40;;
81320;SDS011;70785;52.570;5.638;2024-01-30T01:17:43;19.95;;;10.30;;
81320;SDS011;70785;52.570;5.638;2024-01-30T01:20:09;15.60;;;10.07;;
81320;SDS011;70785;52.570;5.638;2024-01-30T01:22:37;16.65;;;10.00;;
81320;SDS011;70785;52.570;5.638;2024-01-30T01:25:07;14.70;;;9.30;;
81320;SDS011;70785;52.570;5.638;2024-01-30T01:27:33;16.17;;;9.20;;
81320;SDS011;70785;52.570;5.638;2024-01-30T01:30:04;14.18;;;8.95;;
81320;SDS011;70785;52.570;5.638;2024-01-30T01:32:31;14.38;;;9.07;;
81320;SDS011;70785;52.570;5.638;2024-01-30T01:34:57;19.98;;;9.73;;
81320;SDS011;70785;52.570;5.638;2024-01-30T01:37:23;16.35;;;10.90;;
81320;SDS011;70785;52.570;5.638;2024-01-30T01:39:52;17.63;;;10.45;;
81320;SDS011;70785;52.570;5.638;2024-01-30T01:42:18;15.15;;;9.20;;
81320;SDS011;70785;52.570;5.638;2024-01-30T01:44:44;16.08;;;8.98;;
81320;SDS011;70785;52.570;5.638;2024-01-30T01:47:10;13.93;;;9.32;;
81320;SDS011;70785;52.570;5.638;2024-01-30T01:49:37;15.07;;;9.85;;
81320;SDS011;70785;52.570;5.638;2024-01-30T01:52:03;14.45;;;9.05;;
81320;SDS011;70785;52.570;5.638;2024-01-30T01:54:30;12.88;;;8.05;;
81320;SDS011;70785;52.570;5.638;2024-01-30T01:56:56;13.60;;;8.90;;
81320;SDS011;70785;52.570;5.638;2024-01-30T01:59:23;14.02;;;9.38;;
81320;SDS011;70785;52.570;5.638;2024-01-30T02:01:50;17.60;;;9.50;;
81320;SDS011;70785;52.570;5.638;2024-01-30T02:04:18;14.00;;;8.88;;
81320;SDS011;70785;52.570;5.638;2024-01-30T02:06:44;17.38;;;9.30;;
81320;SDS011;70785;52.570;5.638;2024-01-30T02:09:11;14.55;;;8.27;;
81320;SDS011;70785;52.570;5.638;2024-01-30T02:11:37;14.73;;;8.50;;
81320;SDS011;70785;52.570;5.638;2024-01-30T02:14:04;13.27;;;9.27;;
81320;SDS011;70785;52.570;5.638;2024-01-30T02:16:31;14.35;;;9.57;;
81320;SDS011;70785;52.570;5.638;2024-01-30T02:18:57;17.02;;;8.57;;
81320;SDS011;70785;52.570;5.638;2024-01-30T02:21:23;14.50;;;8.48;;
81320;SDS011;70785;52.570;5.638;2024-01-30T02:23:50;13.63;;;7.70;;
81320;SDS011;70785;52.570;5.638;2024-01-30T02:26:17;14.38;;;8.95;;
81320;SDS011;70785;52.570;5.638;2024-01-30T02:28:43;15.43;;;9.02;;
81320;SDS011;70785;52.570;5.638;2024-01-30T02:31:10;14.90;;;8.27;;
81320;SDS011;70785;52.570;5.638;2024-01-30T02:33:36;14.35;;;9.38;;
81320;SDS011;70785;52.570;5.638;2024-01-30T02:36:02;15.25;;;9.02;;
81320;SDS011;70785;52.570;5.638;2024-01-30T02:38:28;14.30;;;8.85;;
81320;SDS011;70785;52.570;5.638;2024-01-30T02:40:54;12.60;;;8.80;;
81320;SDS011;70785;52.570;5.638;2024-01-30T02:43:22;14.15;;;8.13;;
81320;SDS011;70785;52.570;5.638;2024-01-30T02:45:49;14.18;;;7.65;;
81320;SDS011;70785;52.570;5.638;2024-01-30T02:48:15;15.02;;;7.95;;
81320;SDS011;70785;52.570;5.638;2024-01-30T02:50:41;12.88;;;8.00;;
81320;SDS011;70785;52.570;5.638;2024-01-30T02:53:07;13.57;;;8.48;;
81320;SDS011;70785;52.570;5.638;2024-01-30T02:55:33;15.82;;;8.77;;
81320;SDS011;70785;52.570;5.638;2024-01-30T02:57:59;14.90;;;8.63;;
81320;SDS011;70785;52.570;5.638;2024-01-30T03:00:25;15.00;;;8.73;;
81320;SDS011;70785;52.570;5.638;2024-01-30T03:02:51;10.52;;;7.50;;
81320;SDS011;70785;52.570;5.638;2024-01-30T03:05:17;12.25;;;7.45;;
81320;SDS011;70785;52.570;5.638;2024-01-30T03:07:43;11.25;;;7.18;;
81320;SDS011;70785;52.570;5.638;2024-01-30T03:10:09;12.93;;;7.15;;
81320;SDS011;70785;52.570;5.638;2024-01-30T03:12:36;11.85;;;7.63;;
81320;SDS011;70785;52.570;5.638;2024-01-30T03:15:02;11.57;;;7.90;;
81320;SDS011;70785;52.570;5.638;2024-01-30T03:17:28;15.48;;;8.45;;
81320;SDS011;70785;52.570;5.638;2024-01-30T03:19:54;10.27;;;7.55;;
81320;SDS011;70785;52.570;5.638;2024-01-30T03:22:20;12.23;;;7.82;;
81320;SDS011;70785;52.570;5.638;2024-01-30T03:24:46;11.73;;;8.00;;
81320;SDS011;70785;52.570;5.638;2024-01-30T03:27:12;12.35;;;7.55;;
81320;SDS011;70785;52.570;5.638;2024-01-30T03:29:38;11.20;;;6.88;;
81320;SDS011;70785;52.570;5.638;2024-01-30T03:32:04;13.60;;;8.60;;
81320;SDS011;70785;52.570;5.638;2024-01-30T03:34:31;16.15;;;7.32;;
81320;SDS011;70785;52.570;5.638;2024-01-30T03:36:57;13.20;;;8.15;;
81320;SDS011;70785;52.570;5.638;2024-01-30T03:39:23;12.70;;;7.97;;
81320;SDS011;70785;52.570;5.638;2024-01-30T03:41:49;12.00;;;6.57;;
81320;SDS011;70785;52.570;5.638;2024-01-30T03:44:15;10.60;;;7.28;;
81320;SDS011;70785;52.570;5.638;2024-01-30T03:46:42;12.73;;;7.05;;
81320;SDS011;70785;52.570;5.638;2024-01-30T03:49:09;12.95;;;7.40;;
81320;SDS011;70785;52.570;5.638;2024-01-30T03:51:35;10.65;;;7.25;;
81320;SDS011;70785;52.570;5.638;2024-01-30T03:54:01;12.15;;;7.60;;
81320;SDS011;70785;52.570;5.638;2024-01-30T03:56:27;12.55;;;6.95;;
81320;SDS011;70785;52.570;5.638;2024-01-30T03:58:53;16.05;;;8.48;;
81320;SDS011;70785;52.570;5.638;2024-01-30T04:01:19;11.82;;;6.90;;
81320;SDS011;70785;52.570;5.638;2024-01-30T04:03:45;10.90;;;7.30;;
81320;SDS011;70785;52.570;5.638;2024-01-30T04:06:12;11.00;;;6.65;;
81320;SDS011;70785;52.570;5.638;2024-01-30T04:08:38;15.35;;;7.32;;
81320;SDS011;70785;52.570;5.638;2024-01-30T04:11:04;11.07;;;6.93;;
81320;SDS011;70785;52.570;5.638;2024-01-30T04:13:31;13.35;;;7.47;;
81320;SDS011;70785;52.570;5.638;2024-01-30T04:15:59;13.30;;;8.45;;
81320;SDS011;70785;52.570;5.638;2024-01-30T04:18:27;13.38;;;7.68;;
81320;SDS011;70785;52.570;5.638;2024-01-30T04:20:53;13.63;;;8.60;;
81320;SDS011;70785;52.570;5.638;2024-01-30T04:23:20;15.13;;;9.30;;
81320;SDS011;70785;52.570;5.638;2024-01-30T04:25:46;15.10;;;8.30;;
81320;SDS011;70785;52.570;5.638;2024-01-30T04:28:12;13.60;;;8.43;;
81320;SDS011;70785;52.570;5.638;2024-01-30T04:30:38;13.05;;;9.13;;
81320;SDS011;70785;52.570;5.638;2024-01-30T04:33:04;13.13;;;7.95;;
81320;SDS011;70785;52.570;5.638;2024-01-30T04:35:30;13.98;;;9.10;;
81320;SDS011;70785;52.570;5.638;2024-01-30T04:37:57;15.48;;;8.35;;
81320;SDS011;70785;52.570;5.638;2024-01-30T04:40:23;12.95;;;7.97;;
81320;SDS011;70785;52.570;5.638;2024-01-30T04:42:49;12.82;;;7.97;;
81320;SDS011;70785;52.570;5.638;2024-01-30T04:45:15;12.68;;;8.60;;
81320;SDS011;70785;52.570;5.638;2024-01-30T04:47:41;13.43;;;8.88;;
81320;SDS011;70785;52.570;5.638;2024-01-30T04:50:07;14.30;;;8.52;;
81320;SDS011;70785;52.570;5.638;2024-01-30T04:52:34;16.17;;;7.72;;
81320;SDS011;70785;52.570;5.638;2024-01-30T04:55:01;14.65;;;8.80;;
81320;SDS011;70785;52.570;5.638;2024-01-30T04:57:27;12.45;;;8.43;;
81320;SDS011;70785;52.570;5.638;2024-01-30T04:59:53;15.18;;;8.25;;
81320;SDS011;70785;52.570;5.638;2024-01-30T05:02:19;15.43;;;8.18;;
81320;SDS011;70785;52.570;5.638;2024-01-30T05:04:45;12.05;;;8.20;;
81320;SDS011;70785;52.570;5.638;2024-01-30T05:07:12;12.88;;;7.75;;
81320;SDS011;70785;52.570;5.638;2024-01-30T05:09:38;14.00;;;7.55;;
81320;SDS011;70785;52.570;5.638;2024-01-30T05:12:04;12.27;;;7.45;;
81320;SDS011;70785;52.570;5.638;2024-01-30T05:14:30;11.93;;;7.22;;
81320;SDS011;70785;52.570;5.638;2024-01-30T05:16:56;11.88;;;7.38;;
81320;SDS011;70785;52.570;5.638;2024-01-30T05:19:22;11.25;;;6.82;;
81320;SDS011;70785;52.570;5.638;2024-01-30T05:21:49;13.48;;;6.95;;
81320;SDS011;70785;52.570;5.638;2024-01-30T05:24:15;13.68;;;6.90;;
81320;SDS011;70785;52.570;5.638;2024-01-30T05:26:41;13.80;;;7.47;;
81320;SDS011;70785;52.570;5.638;2024-01-30T05:29:07;13.43;;;7.53;;
81320;SDS011;70785;52.570;5.638;2024-01-30T05:31:34;11.80;;;6.95;;
81320;SDS011;70785;52.570;5.638;2024-01-30T05:34:00;15.25;;;7.65;;
81320;SDS011;70785;52.570;5.638;2024-01-30T05:36:26;10.55;;;6.78;;
81320;SDS011;70785;52.570;5.638;2024-01-30T05:38:53;14.73;;;7.50;;
81320;SDS011;70785;52.570;5.638;2024-01-30T05:41:19;13.07;;;6.45;;
81320;SDS011;70785;52.570;5.638;2024-01-30T05:43:46;9.23;;;5.95;;
81320;SDS011;70785;52.570;5.638;2024-01-30T05:46:13;12.98;;;6.60;;
81320;SDS011;70785;52.570;5.638;2024-01-30T05:48:39;10.75;;;6.07;;
81320;SDS011;70785;52.570;5.638;2024-01-30T05:51:06;13.10;;;6.75;;
81320;SDS011;70785;52.570;5.638;2024-01-30T05:53:33;11.73;;;6.22;;
81320;SDS011;70785;52.570;5.638;2024-01-30T05:56:00;10.85;;;6.53;;
81320;SDS011;70785;52.570;5.638;2024-01-30T05:58:27;12.40;;;6.65;;
81320;SDS011;70785;52.570;5.638;2024-01-30T06:00:53;11.02;;;7.22;;
81320;SDS011;70785;52.570;5.638;2024-01-30T06:03:20;12.32;;;7.00;;
81320;SDS011;70785;52.570;5.638;2024-01-30T06:05:46;12.27;;;6.47;;
81320;SDS011;70785;52.570;5.638;2024-01-30T06:08:12;9.10;;;5.80;;
81320;SDS011;70785;52.570;5.638;2024-01-30T06:10:38;12.27;;;7.72;;
81320;SDS011;70785;52.570;5.638;2024-01-30T06:13:05;9.95;;;6.50;;
81320;SDS011;70785;52.570;5.638;2024-01-30T06:15:31;10.57;;;6.25;;
81320;SDS011;70785;52.570;5.638;2024-01-30T06:17:58;10.25;;;7.57;;
81320;SDS011;70785;52.570;5.638;2024-01-30T06:20:24;12.57;;;6.82;;
81320;SDS011;70785;52.570;5.638;2024-01-30T06:22:50;10.88;;;6.55;;
81320;SDS011;70785;52.570;5.638;2024-01-30T06:25:17;10.35;;;6.75;;
81320;SDS011;70785;52.570;5.638;2024-01-30T06:27:43;14.15;;;6.85;;
81320;SDS011;70785;52.570;5.638;2024-01-30T06:30:09;10.75;;;7.28;;
81320;SDS011;70785;52.570;5.638;2024-01-30T06:32:36;10.93;;;6.50;;
81320;SDS011;70785;52.570;5.638;2024-01-30T06:35:02;11.57;;;6.95;;
81320;SDS011;70785;52.570;5.638;2024-01-30T06:37:28;11.95;;;6.15;;
81320;SDS011;70785;52.570;5.638;2024-01-30T06:39:54;10.60;;;7.00;;
81320;SDS011;70785;52.570;5.638;2024-01-30T06:42:20;12.02;;;7.20;;
81320;SDS011;70785;52.570;5.638;2024-01-30T06:44:46;11.30;;;5.90;;
81320;SDS011;70785;52.570;5.638;2024-01-30T06:47:13;12.98;;;6.28;;
81320;SDS011;70785;52.570;5.638;2024-01-30T06:49:39;11.75;;;6.38;;
81320;SDS011;70785;52.570;5.638;2024-01-30T06:52:08;13.45;;;7.18;;
81320;SDS011;70785;52.570;5.638;2024-01-30T06:54:34;10.73;;;6.65;;
81320;SDS011;70785;52.570;5.638;2024-01-30T06:57:00;12.70;;;6.95;;
81320;SDS011;70785;52.570;5.638;2024-01-30T06:59:26;13.30;;;7.20;;
81320;SDS011;70785;52.570;5.638;2024-01-30T07:01:52;11.00;;;7.15;;
81320;SDS011;70785;52.570;5.638;2024-01-30T07:04:18;11.55;;;7.15;;
81320;SDS011;70785;52.570;5.638;2024-01-30T07:06:44;11.32;;;8.02;;
81320;SDS011;70785;52.570;5.638;2024-01-30T07:09:11;12.05;;;6.70;;
81320;SDS011;70785;52.570;5.638;2024-01-30T07:11:39;12.95;;;7.30;;
81320;SDS011;70785;52.570;5.638;2024-01-30T07:14:05;12.00;;;6.47;;
81320;SDS011;70785;52.570;5.638;2024-01-30T07:16:31;11.25;;;7.28;;
81320;SDS011;70785;52.570;5.638;2024-01-30T07:18:57;11.90;;;7.57;;
81320;SDS011;70785;52.570;5.638;2024-01-30T07:21:23;11.70;;;6.60;;
81320;SDS011;70785;52.570;5.638;2024-01-30T07:23:54;13.07;;;8.63;;
81320;SDS011;70785;52.570;5.638;2024-01-30T07:26:20;14.18;;;6.60;;
81320;SDS011;70785;52.570;5.638;2024-01-30T07:28:47;11.13;;;6.95;;
81320;SDS011;70785;52.570;5.638;2024-01-30T07:31:13;14.23;;;7.05;;
81320;SDS011;70785;52.570;5.638;2024-01-30T07:33:39;11.98;;;7.38;;
81320;SDS011;70785;52.570;5.638;2024-01-30T07:36:06;21.13;;;9.00;;
81320;SDS011;70785;52.570;5.638;2024-01-30T07:38:33;12.95;;;7.57;;
81320;SDS011;70785;52.570;5.638;2024-01-30T07:40:59;12.60;;;7.13;;
81320;SDS011;70785;52.570;5.638;2024-01-30T07:43:25;11.88;;;7.13;;
81320;SDS011;70785;52.570;5.638;2024-01-30T07:45:51;13.23;;;7.68;;
81320;SDS011;70785;52.570;5.638;2024-01-30T07:48:18;15.38;;;7.57;;
81320;SDS011;70785;52.570;5.638;2024-01-30T07:50:44;9.80;;;6.38;;
81320;SDS011;70785;52.570;5.638;2024-01-30T07:53:10;11.48;;;8.05;;
81320;SDS011;70785;52.570;5.638;2024-01-30T07:55:36;11.57;;;7.28;;
81320;SDS011;70785;52.570;5.638;2024-01-30T07:58:02;11.68;;;7.55;;
81320;SDS011;70785;52.570;5.638;2024-01-30T08:00:30;12.77;;;7.53;;
81320;SDS011;70785;52.570;5.638;2024-01-30T08:02:56;15.10;;;8.32;;
81320;SDS011;70785;52.570;5.638;2024-01-30T08:05:22;12.73;;;7.32;;
81320;SDS011;70785;52.570;5.638;2024-01-30T08:07:49;13.77;;;8.02;;
81320;SDS011;70785;52.570;5.638;2024-01-30T08:10:15;11.50;;;7.25;;
81320;SDS011;70785;52.570;5.638;2024-01-30T08:12:44;10.88;;;7.50;;
81320;SDS011;70785;52.570;5.638;2024-01-30T08:15:11;11.50;;;6.80;;
81320;SDS011;70785;52.570;5.638;2024-01-30T08:17:38;14.48;;;6.90;;
81320;SDS011;70785;52.570;5.638;2024-01-30T08:20:05;15.30;;;7.07;;
81320;SDS011;70785;52.570;5.638;2024-01-30T08:22:33;10.43;;;7.15;;
81320;SDS011;70785;52.570;5.638;2024-01-30T08:24:59;11.90;;;7.05;;
81320;SDS011;70785;52.570;5.638;2024-01-30T08:27:26;11.18;;;7.07;;
81320;SDS011;70785;52.570;5.638;2024-01-30T08:29:52;9.75;;;7.18;;
81320;SDS011;70785;52.570;5.638;2024-01-30T08:32:18;13.25;;;6.55;;
81320;SDS011;70785;52.570;5.638;2024-01-30T08:34:44;11.63;;;6.68;;
81320;SDS011;70785;52.570;5.638;2024-01-30T08:37:10;11.52;;;7.32;;
81320;SDS011;70785;52.570;5.638;2024-01-30T08:39:37;11.43;;;6.57;;
81320;SDS011;70785;52.570;5.638;2024-01-30T08:42:03;11.98;;;7.43;;
81320;SDS011;70785;52.570;5.638;2024-01-30T08:44:29;12.25;;;6.65;;
81320;SDS011;70785;52.570;5.638;2024-01-30T08:46:56;10.80;;;7.68;;
81320;SDS011;70785;52.570;5.638;2024-01-30T08:49:22;10.13;;;5.53;;
81320;SDS011;70785;52.570;5.638;2024-01-30T08:51:48;10.48;;;7.55;;
81320;SDS011;70785;52.570;5.638;2024-01-30T08:54:14;12.40;;;5.93;;
81320;SDS011;70785;52.570;5.638;2024-01-30T08:56:40;12.02;;;6.38;;
81320;SDS011;70785;52.570;5.638;2024-01-30T08:59:06;10.30;;;5.85;;
81320;SDS011;70785;52.570;5.638;2024-01-30T09:01:32;8.02;;;5.63;;
81320;SDS011;70785;52.570;5.638;2024-01-30T09:03:58;14.15;;;7.53;;
81320;SDS011;70785;52.570;5.638;2024-01-30T09:06:24;10.48;;;6.97;;
81320;SDS011;70785;52.570;5.638;2024-01-30T09:08:53;10.45;;;6.43;;
81320;SDS011;70785;52.570;5.638;2024-01-30T09:11:19;12.20;;;6.50;;
81320;SDS011;70785;52.570;5.638;2024-01-30T09:13:45;10.05;;;6.10;;
81320;SDS011;70785;52.570;5.638;2024-01-30T09:16:12;10.45;;;6.65;;
81320;SDS011;70785;52.570;5.638;2024-01-30T09:18:38;14.57;;;6.13;;
81320;SDS011;70785;52.570;5.638;2024-01-30T09:21:04;9.40;;;6.50;;
81320;SDS011;70785;52.570;5.638;2024-01-30T09:23:30;11.38;;;6.07;;
81320;SDS011;70785;52.570;5.638;2024-01-30T09:25:57;10.20;;;5.93;;
81320;SDS011;70785;52.570;5.638;2024-01-30T09:28:23;12.02;;;6.90;;
81320;SDS011;70785;52.570;5.638;2024-01-30T09:30:49;10.18;;;6.05;;
81320;SDS011;70785;52.570;5.638;2024-01-30T09:33:15;14.30;;;7.15;;
81320;SDS011;70785;52.570;5.638;2024-01-30T09:35:41;13.50;;;6.75;;
81320;SDS011;70785;52.570;5.638;2024-01-30T09:38:07;12.38;;;7.82;;
81320;SDS011;70785;52.570;5.638;2024-01-30T09:40:33;13.10;;;6.63;;
81320;SDS011;70785;52.570;5.638;2024-01-30T09:43:00;15.38;;;6.68;;
81320;SDS011;70785;52.570;5.638;2024-01-30T09:45:26;16.17;;;7.13;;
81320;SDS011;70785;52.570;5.638;2024-01-30T09:47:52;12.02;;;6.25;;
81320;SDS011;70785;52.570;5.638;2024-01-30T09:50:19;11.38;;;6.28;;
81320;SDS011;70785;52.570;5.638;2024-01-30T09:52:46;12.25;;;5.63;;
81320;SDS011;70785;52.570;5.638;2024-01-30T09:55:13;9.48;;;5.72;;
81320;SDS011;70785;52.570;5.638;2024-01-30T09:57:39;11.40;;;5.97;;
81320;SDS011;70785;52.570;5.638;2024-01-30T10:00:07;12.18;;;7.00;;
81320;SDS011;70785;52.570;5.638;2024-01-30T10:02:40;12.32;;;7.18;;
81320;SDS011;70785;52.570;5.638;2024-01-30T10:05:08;13.25;;;7.18;;
81320;SDS011;70785;52.570;5.638;2024-01-30T10:07:35;15.55;;;7.60;;
81320;SDS011;70785;52.570;5.638;2024-01-30T10:10:01;12.68;;;7.57;;
81320;SDS011;70785;52.570;5.638;2024-01-30T10:12:27;13.65;;;6.68;;
81320;SDS011;70785;52.570;5.638;2024-01-30T10:14:55;14.65;;;6.85;;
81320;SDS011;70785;52.570;5.638;2024-01-30T10:17:24;15.65;;;8.52;;
81320;SDS011;70785;52.570;5.638;2024-01-30T10:19:51;14.52;;;7.00;;
81320;SDS011;70785;52.570;5.638;2024-01-30T10:22:17;14.30;;;8.45;;
81320;SDS011;70785;52.570;5.638;2024-01-30T10:24:43;15.48;;;7.15;;
81320;SDS011;70785;52.570;5.638;2024-01-30T10:27:11;11.18;;;5.15;;
81320;SDS011;70785;52.570;5.638;2024-01-30T10:29:37;12.55;;;7.60;;
81320;SDS011;70785;52.570;5.638;2024-01-30T10:32:03;10.25;;;6.03;;
81320;SDS011;70785;52.570;5.638;2024-01-30T10:34:30;16.85;;;6.82;;
81320;SDS011;70785;52.570;5.638;2024-01-30T10:37:06;14.00;;;7.63;;
81320;SDS011;70785;52.570;5.638;2024-01-30T10:39:45;11.63;;;7.05;;
81320;SDS011;70785;52.570;5.638;2024-01-30T10:42:12;14.05;;;6.50;;
81320;SDS011;70785;52.570;5.638;2024-01-30T10:44:44;13.65;;;7.03;;
81320;SDS011;70785;52.570;5.638;2024-01-30T10:47:32;14.52;;;6.63;;
81320;SDS011;70785;52.570;5.638;2024-01-30T10:50:01;15.18;;;6.43;;
81320;SDS011;70785;52.570;5.638;2024-01-30T10:52:29;11.80;;;7.30;;
81320;SDS011;70785;52.570;5.638;2024-01-30T10:54:55;9.82;;;5.90;;
81320;SDS011;70785;52.570;5.638;2024-01-30T10:57:25;8.52;;;5.93;;
81320;SDS011;70785;52.570;5.638;2024-01-30T10:59:56;6.43;;;4.07;;
81320;SDS011;70785;52.570;5.638;2024-01-30T11:02:24;12.52;;;5.70;;
81320;SDS011;70785;52.570;5.638;2024-01-30T11:04:54;12.93;;;5.28;;
81320;SDS011;70785;52.570;5.638;2024-01-30T11:07:26;9.90;;;4.43;;
81320;SDS011;70785;52.570;5.638;2024-01-30T11:09:53;15.68;;;5.63;;
81320;SDS011;70785;52.570;5.638;2024-01-30T11:12:30;10.38;;;6.30;;
81320;SDS011;70785;52.570;5.638;2024-01-30T11:15:05;7.75;;;3.85;;
81320;SDS011;70785;52.570;5.638;2024-01-30T11:17:43;5.07;;;3.33;;
81320;SDS011;70785;52.570;5.638;2024-01-30T11:20:20;6.10;;;3.78;;
81320;SDS011;70785;52.570;5.638;2024-01-30T11:22:50;8.75;;;3.67;;
81320;SDS011;70785;52.570;5.638;2024-01-30T11:25:18;4.60;;;2.40;;
81320;SDS011;70785;52.570;5.638;2024-01-30T11:27:46;2.97;;;1.35;;
81320;SDS011;70785;52.570;5.638;2024-01-30T11:33:06;3.90;;;1.25;;
81320;SDS011;70785;52.570;5.638;2024-01-30T11:35:43;4.00;;;1.70;;
81320;SDS011;70785;52.570;5.638;2024-01-30T11:38:11;2.42;;;0.90;;
81320;SDS011;70785;52.570;5.638;2024-01-30T11:40:39;1.67;;;1.35;;
81320;SDS011;70785;52.570;5.638;2024-01-30T11:43:06;2.97;;;1.10;;
81320;SDS011;70785;52.570;5.638;2024-01-30T11:45:33;3.65;;;0.77;;
81320;SDS011;70785;52.570;5.638;2024-01-30T11:48:00;2.92;;;1.27;;
81320;SDS011;70785;52.570;5.638;2024-01-30T11:50:29;1.98;;;1.00;;
81320;SDS011;70785;52.570;5.638;2024-01-30T11:52:56;2.80;;;0.82;;
81320;SDS011;70785;52.570;5.638;2024-01-30T11:55:23;3.28;;;1.25;;
81320;SDS011;70785;52.570;5.638;2024-01-30T11:57:49;2.45;;;1.05;;
81320;SDS011;70785;52.570;5.638;2024-01-30T12:00:16;0.98;;;0.50;;
81320;SDS011;70785;52.570;5.638;2024-01-30T12:02:44;2.03;;;0.50;;
81320;SDS011;70785;52.570;5.638;2024-01-30T12:07:40;1.23;;;0.40;;
81320;SDS011;70785;52.570;5.638;2024-01-30T12:10:10;0.95;;;0.30;;
81320;SDS011;70785;52.570;5.638;2024-01-30T12:12:36;0.90;;;0.30;;
81320;SDS011;70785;52.570;5.638;2024-01-30T12:15:03;2.67;;;1.35;;
81320;SDS011;70785;52.570;5.638;2024-01-30T12:17:31;3.50;;;0.80;;
81320;SDS011;70785;52.570;5.638;2024-01-30T12:20:11;0.77;;;0.40;;
81320;SDS011;70785;52.570;5.638;2024-01-30T12:22:42;0.82;;;0.30;;
81320;SDS011;70785;52.570;5.638;2024-01-30T12:25:12;1.60;;;0.50;;
81320;SDS011;70785;52.570;5.638;2024-01-30T12:30:10;1.05;;;0.60;;
81320;SDS011;70785;52.570;5.638;2024-01-30T12:32:42;2.40;;;0.57;;
81320;SDS011;70785;52.570;5.638;2024-01-30T12:35:11;2.40;;;0.73;;
81320;SDS011;70785;52.570;5.638;2024-01-30T12:37:38;3.45;;;0.90;;
81320;SDS011;70785;52.570;5.638;2024-01-30T12:40:08;2.90;;;0.60;;
81320;SDS011;70785;52.570;5.638;2024-01-30T12:42:35;2.78;;;0.40;;
81320;SDS011;70785;52.570;5.638;2024-01-30T12:45:04;2.13;;;0.63;;
81320;SDS011;70785;52.570;5.638;2024-01-30T12:47:31;3.97;;;1.05;;
81320;SDS011;70785;52.570;5.638;2024-01-30T12:49:58;2.22;;;1.00;;
81320;SDS011;70785;52.570;5.638;2024-01-30T12:52:24;3.05;;;0.80;;
81320;SDS011;70785;52.570;5.638;2024-01-30T12:54:51;1.77;;;0.93;;
81320;SDS011;70785;52.570;5.638;2024-01-30T12:57:17;3.60;;;0.90;;
81320;SDS011;70785;52.570;5.638;2024-01-30T12:59:44;3.20;;;1.92;;
81320;SDS011;70785;52.570;5.638;2024-01-30T13:02:12;2.47;;;0.80;;
81320;SDS011;70785;52.570;5.638;2024-01-30T13:04:39;3.15;;;1.30;;
81320;SDS011;70785;52.570;5.638;2024-01-30T13:07:05;5.97;;;1.55;;
81320;SDS011;70785;52.570;5.638;2024-01-30T13:09:31;4.95;;;1.30;;
81320;SDS011;70785;52.570;5.638;2024-01-30T13:11:58;1.85;;;1.00;;
81320;SDS011;70785;52.570;5.638;2024-01-30T13:14:25;4.35;;;1.02;;
81320;SDS011;70785;52.570;5.638;2024-01-30T13:16:51;1.70;;;0.90;;
81320;SDS011;70785;52.570;5.638;2024-01-30T13:19:18;1.40;;;0.85;;
81320;SDS011;70785;52.570;5.638;2024-01-30T13:21:44;4.20;;;1.52;;
81320;SDS011;70785;52.570;5.638;2024-01-30T13:24:10;2.08;;;1.55;;
81320;SDS011;70785;52.570;5.638;2024-01-30T13:26:36;3.63;;;1.05;;
81320;SDS011;70785;52.570;5.638;2024-01-30T13:29:02;3.65;;;1.27;;
81320;SDS011;70785;52.570;5.638;2024-01-30T13:31:29;3.00;;;0.90;;
81320;SDS011;70785;52.570;5.638;2024-01-30T13:33:55;2.90;;;1.50;;
81320;SDS011;70785;52.570;5.638;2024-01-30T13:36:22;2.63;;;1.33;;
81320;SDS011;70785;52.570;5.638;2024-01-30T13:38:48;4.72;;;1.05;;
81320;SDS011;70785;52.570;5.638;2024-01-30T13:41:14;2.10;;;1.40;;
81320;SDS011;70785;52.570;5.638;2024-01-30T13:43:43;3.50;;;1.73;;
81320;SDS011;70785;52.570;5.638;2024-01-30T13:46:09;4.95;;;1.25;;
81320;SDS011;70785;52.570;5.638;2024-01-30T13:48:35;2.15;;;1.15;;
81320;SDS011;70785;52.570;5.638;2024-01-30T13:51:01;2.60;;;1.52;;
81320;SDS011;70785;52.570;5.638;2024-01-30T13:53:27;3.65;;;1.50;;
81320;SDS011;70785;52.570;5.638;2024-01-30T13:55:53;4.07;;;1.75;;
81320;SDS011;70785;52.570;5.638;2024-01-30T13:58:20;4.95;;;1.80;;
81320;SDS011;70785;52.570;5.638;2024-01-30T14:00:46;2.75;;;0.90;;
81320;SDS011;70785;52.570;5.638;2024-01-30T14:03:13;4.28;;;1.73;;
81320;SDS011;70785;52.570;5.638;2024-01-30T14:05:39;1.85;;;1.20;;
81320;SDS011;70785;52.570;5.638;2024-01-30T14:08:06;2.53;;;2.00;;
81320;SDS011;70785;52.570;5.638;2024-01-30T14:10:34;4.50;;;1.38;;
81320;SDS011;70785;52.570;5.638;2024-01-30T14:13:00;4.50;;;1.73;;
81320;SDS011;70785;52.570;5.638;2024-01-30T14:15:26;3.70;;;2.20;;
81320;SDS011;70785;52.570;5.638;2024-01-30T14:17:52;3.83;;;2.60;;
81320;SDS011;70785;52.570;5.638;2024-01-30T14:20:19;3.28;;;1.67;;
81320;SDS011;70785;52.570;5.638;2024-01-30T14:22:45;4.68;;;2.03;;
81320;SDS011;70785;52.570;5.638;2024-01-30T14:25:11;4.03;;;2.08;;
81320;SDS011;70785;52.570;5.638;2024-01-30T14:27:38;7.50;;;2.30;;
81320;SDS011;70785;52.570;5.638;2024-01-30T14:30:04;3.60;;;1.75;;
81320;SDS011;70785;52.570;5.638;2024-01-30T14:32:30;2.90;;;2.15;;
81320;SDS011;70785;52.570;5.638;2024-01-30T14:34:56;3.17;;;1.58;;
81320;SDS011;70785;52.570;5.638;2024-01-30T14:37:22;2.58;;;1.70;;
81320;SDS011;70785;52.570;5.638;2024-01-30T14:39:49;4.75;;;1.80;;
81320;SDS011;70785;52.570;5.638;2024-01-30T14:42:16;3.20;;;1.50;;